Time;durP1;ratioP1;P1;durP2;ratioP2;P2;SDS_P1;SDS_P2;PMS_P1;PMS_P2;Temp;Humidity;BMP_temperature;BMP_pressure;BME280_temperature;BME280_humidity;BME280_pressure;Samples;Min_cycle;Max_cycle;Signal;HPM_P1;HPM_P2
2023/08/18 00:00:13;;;;;;;5.33;4.83;;;25.40;75.60;;;;;;4860520;29;20479;-84
2023/08/18 00:02:43;;;;;;;5.20;4.73;;;25.50;75.80;;;;;;4852712;29;20552;-84
2023/08/18 00:05:11;;;;;;;7.03;4.67;;;25.50;75.90;;;;;;4856438;29;20582;-84
2023/08/18 00:07:41;;;;;;;4.63;4.37;;;25.60;75.80;;;;;;4855256;29;21011;-84
2023/08/18 00:10:10;;;;;;;4.23;3.83;;;25.60;75.20;;;;;;4846562;29;20903;-84
2023/08/18 00:12:38;;;;;;;4.93;4.20;;;25.60;76.90;;;;;;4847119;29;20483;-84
2023/08/18 00:15:08;;;;;;;5.83;5.10;;;25.70;75.50;;;;;;4861242;29;20476;-84
2023/08/18 00:17:37;;;;;;;4.87;4.47;;;25.80;74.50;;;;;;4859879;29;21023;-84
2023/08/18 00:20:06;;;;;;;5.03;4.53;;;25.60;75.00;;;;;;4859806;29;20829;-84
2023/08/18 00:22:34;;;;;;;5.37;3.73;;;25.40;76.10;;;;;;4859243;29;20465;-84
2023/08/18 00:25:03;;;;;;;7.47;4.70;;;25.50;77.30;;;;;;4860184;29;20574;-85
2023/08/18 00:27:31;;;;;;;5.20;4.33;;;25.80;76.70;;;;;;4860719;29;20442;-85
2023/08/18 00:29:59;;;;;;;5.50;3.90;;;26.10;76.00;;;;;;4859447;29;20873;-84
2023/08/18 00:32:29;;;;;;;6.27;5.47;;;26.20;73.80;;;;;;4854746;29;20975;-84
2023/08/18 00:34:57;;;;;;;4.20;3.90;;;26.20;73.30;;;;;;4842767;29;20473;-84
2023/08/18 00:37:25;;;;;;;6.17;5.67;;;26.10;73.60;;;;;;4851879;29;20471;-85
2023/08/18 00:39:54;;;;;;;6.27;5.60;;;25.70;74.10;;;;;;4842889;29;20524;-84
2023/08/18 00:42:23;;;;;;;5.73;5.10;;;25.40;75.70;;;;;;4853211;29;20466;-84
2023/08/18 00:44:52;;;;;;;5.33;4.80;;;25.10;75.80;;;;;;4858589;29;20998;-84
2023/08/18 00:47:20;;;;;;;5.50;5.10;;;24.80;76.80;;;;;;4842578;29;21028;-85
2023/08/18 00:49:50;;;;;;;5.83;5.43;;;24.60;77.40;;;;;;4852915;29;20478;-84
2023/08/18 00:52:19;;;;;;;4.63;4.27;;;24.40;77.30;;;;;;4859801;29;20453;-85
2023/08/18 00:54:50;;;;;;;7.20;6.37;;;24.10;78.60;;;;;;4858700;29;20849;-84
2023/08/18 00:57:19;;;;;;;5.30;4.90;;;23.90;78.60;;;;;;4859828;29;20508;-84
2023/08/18 00:59:47;;;;;;;6.00;4.80;;;23.70;79.70;;;;;;4859391;29;20466;-84
2023/08/18 01:02:16;;;;;;;5.33;4.93;;;23.70;79.10;;;;;;4860555;29;20514;-84
2023/08/18 01:04:44;;;;;;;5.77;5.27;;;23.60;78.80;;;;;;4850780;29;20478;-85
2023/08/18 01:07:14;;;;;;;5.67;5.20;;;23.50;79.40;;;;;;4853676;29;20859;-85
2023/08/18 01:09:43;;;;;;;5.47;4.97;;;23.40;79.60;;;;;;4847826;29;20769;-84
2023/08/18 01:12:22;;;;;;;5.07;4.67;;;23.30;79.70;;;;;;4847776;29;20519;-85
2023/08/18 01:15:00;;;;;;;7.53;4.73;;;23.30;79.70;;;;;;4858683;29;20467;-84
2023/08/18 01:17:36;;;;;;;5.50;5.10;;;23.50;79.90;;;;;;4859635;29;20451;-84
2023/08/18 01:20:09;;;;;;;5.40;4.90;;;23.50;79.50;;;;;;4860047;29;20451;-85
2023/08/18 01:22:40;;;;;;;4.83;4.43;;;23.50;80.20;;;;;;4858953;29;20502;-85
2023/08/18 01:25:10;;;;;;;5.40;5.00;;;23.50;80.20;;;;;;4847085;29;20472;-84
2023/08/18 01:27:39;;;;;;;4.40;4.10;;;23.70;79.30;;;;;;4847832;29;20470;-85
2023/08/18 01:30:08;;;;;;;4.87;4.37;;;23.90;79.50;;;;;;4851822;29;20493;-84
2023/08/18 01:32:45;;;;;;;4.27;3.97;;;24.20;78.90;;;;;;4853927;29;20470;-86
2023/08/18 01:35:16;;;;;;;5.87;5.37;;;24.40;77.60;;;;;;4860127;29;20468;-84
2023/08/18 01:37:45;;;;;;;4.57;4.27;;;24.40;77.40;;;;;;4840647;29;20518;-84
2023/08/18 01:40:17;;;;;;;5.60;5.10;;;24.20;78.10;;;;;;4855156;29;20472;-84
2023/08/18 01:42:47;;;;;;;7.37;6.03;;;24.00;78.80;;;;;;4857079;29;20841;-85
2023/08/18 01:45:18;;;;;;;5.60;5.10;;;23.70;79.40;;;;;;4860262;29;20425;-85
2023/08/18 01:47:46;;;;;;;5.40;5.00;;;23.60;79.80;;;;;;4858506;29;20466;-84
2023/08/18 01:50:15;;;;;;;5.63;4.80;;;23.50;79.80;;;;;;4857990;29;20847;-84
2023/08/18 01:52:43;;;;;;;5.83;5.33;;;23.40;80.00;;;;;;4857889;29;20994;-84
2023/08/18 01:55:12;;;;;;;5.40;5.00;;;23.40;79.30;;;;;;4858717;29;20463;-84
2023/08/18 01:57:41;;;;;;;6.57;5.47;;;23.20;79.70;;;;;;4859464;29;20497;-85
2023/08/18 02:00:10;;;;;;;5.43;4.93;;;23.20;79.30;;;;;;4858921;29;20462;-85
2023/08/18 02:02:48;;;;;;;6.53;5.97;;;23.00;79.60;;;;;;4847331;29;20578;-84
2023/08/18 02:05:19;;;;;;;8.80;5.83;;;22.90;80.20;;;;;;4857701;29;20453;-84
2023/08/18 02:07:47;;;;;;;6.73;6.17;;;22.80;80.10;;;;;;4855623;29;20512;-84
2023/08/18 02:10:15;;;;;;;4.67;4.37;;;22.60;80.50;;;;;;4867102;29;20461;-84
2023/08/18 02:12:45;;;;;;;5.70;5.30;;;22.50;81.60;;;;;;4858857;29;20469;-84
2023/08/18 02:15:13;;;;;;;5.27;4.87;;;22.60;80.60;;;;;;4858334;29;20455;-84
2023/08/18 02:17:41;;;;;;;6.00;5.47;;;22.60;81.00;;;;;;4855451;29;20807;-84
2023/08/18 02:20:12;;;;;;;6.00;5.47;;;22.70;80.80;;;;;;4859694;29;20499;-84
2023/08/18 02:22:41;;;;;;;5.70;5.20;;;22.50;81.10;;;;;;4857390;29;20577;-84
2023/08/18 02:25:10;;;;;;;7.20;5.53;;;22.50;80.80;;;;;;4858778;29;20454;-84
2023/08/18 02:27:38;;;;;;;4.70;4.40;;;22.50;80.90;;;;;;4856949;29;20486;-84
2023/08/18 02:30:09;;;;;;;5.47;4.83;;;22.70;81.10;;;;;;4855354;29;20492;-84
2023/08/18 02:32:37;;;;;;;4.70;4.20;;;23.10;79.90;;;;;;4842923;29;20571;-84
2023/08/18 02:35:06;;;;;;;4.30;3.90;;;23.30;80.30;;;;;;4850178;29;20583;-85
2023/08/18 02:37:34;;;;;;;4.77;4.37;;;23.60;80.10;;;;;;4848666;29;20476;-84
2023/08/18 02:40:06;;;;;;;6.27;5.70;;;23.90;78.40;;;;;;4859307;29;21272;-85
2023/08/18 02:42:35;;;;;;;4.70;4.40;;;23.70;78.20;;;;;;4858688;29;20486;-85
2023/08/18 02:45:03;;;;;;;4.63;4.23;;;23.40;79.00;;;;;;4858859;29;20447;-86
2023/08/18 02:47:34;;;;;;;5.17;4.77;;;23.20;79.00;;;;;;4859018;29;20494;-84
2023/08/18 02:50:02;;;;;;;5.83;5.33;;;23.10;79.50;;;;;;4859377;29;20445;-84
2023/08/18 02:52:30;;;;;;;5.10;4.60;;;23.10;78.70;;;;;;4857996;29;20443;-85
2023/08/18 02:54:58;;;;;;;6.67;5.97;;;22.90;79.40;;;;;;4858967;29;20465;-84
2023/08/18 02:57:26;;;;;;;5.27;4.80;;;22.60;78.30;;;;;;4857129;29;20883;-85
2023/08/18 02:59:55;;;;;;;5.63;5.30;;;22.20;78.60;;;;;;4852002;29;20477;-86
2023/08/18 03:02:23;;;;;;;5.50;4.87;;;21.90;80.20;;;;;;4856441;29;20476;-84
2023/08/18 03:04:53;;;;;;;4.40;4.10;;;21.70;81.00;;;;;;4853974;29;20956;-84
2023/08/18 03:07:21;;;;;;;4.57;4.27;;;21.50;82.20;;;;;;4850562;29;20485;-84
2023/08/18 03:09:51;;;;;;;4.90;4.40;;;21.60;82.80;;;;;;4855605;29;20812;-84
2023/08/18 03:12:19;;;;;;;4.80;4.50;;;21.80;81.10;;;;;;4860557;29;20949;-85
2023/08/18 03:14:51;;;;;;;5.00;4.60;;;21.80;81.50;;;;;;4861896;29;20493;-84
2023/08/18 03:17:19;;;;;;;5.00;4.60;;;22.10;81.40;;;;;;4859984;29;20866;-84
2023/08/18 03:19:48;;;;;;;4.10;3.80;;;22.30;80.60;;;;;;4861100;29;20467;-84
2023/08/18 03:22:17;;;;;;;3.87;3.63;;;22.60;80.70;;;;;;4861595;29;20475;-85
2023/08/18 03:24:45;;;;;;;4.30;4.00;;;22.90;80.20;;;;;;4860974;29;20475;-84
2023/08/18 03:27:14;;;;;;;3.70;3.50;;;23.20;79.60;;;;;;4851012;29;20489;-84
2023/08/18 03:29:42;;;;;;;4.17;3.87;;;23.50;81.10;;;;;;4851188;29;21023;-84
2023/08/18 03:32:12;;;;;;;5.13;4.73;;;23.90;78.00;;;;;;4858547;29;20477;-85
2023/08/18 03:34:40;;;;;;;5.67;5.17;;;24.00;76.40;;;;;;4860812;29;21348;-84
2023/08/18 03:37:09;;;;;;;3.50;3.30;;;23.60;76.30;;;;;;4855089;29;20463;-86
2023/08/18 03:39:38;;;;;;;4.93;4.57;;;23.70;77.50;;;;;;4871347;29;20990;-87
2023/08/18 03:42:06;;;;;;;4.53;4.13;;;23.60;76.70;;;;;;4860827;29;20482;-84
2023/08/18 03:44:35;;;;;;;4.40;4.10;;;23.20;77.90;;;;;;4861722;29;20470;-84
2023/08/18 03:47:03;;;;;;;4.50;4.20;;;22.90;78.40;;;;;;4860563;29;20485;-84
2023/08/18 03:49:31;;;;;;;3.80;3.60;;;22.70;79.40;;;;;;4859421;29;20477;-84
2023/08/18 03:52:00;;;;;;;4.10;3.80;;;22.70;80.00;;;;;;4857258;29;20977;-84
2023/08/18 03:54:29;;;;;;;4.00;3.80;;;22.60;79.80;;;;;;4873249;29;21034;-84
2023/08/18 03:56:58;;;;;;;3.83;3.63;;;22.50;79.70;;;;;;4868302;29;20529;-84
2023/08/18 03:59:26;;;;;;;4.97;4.67;;;22.40;80.00;;;;;;4859847;29;20527;-84
2023/08/18 04:01:54;;;;;;;3.80;3.50;;;22.40;79.70;;;;;;4856844;29;20550;-86
2023/08/18 04:04:22;;;;;;;3.73;3.43;;;22.30;80.00;;;;;;4855073;29;20490;-84
2023/08/18 04:06:51;;;;;;;3.93;3.50;;;22.20;80.40;;;;;;4860229;29;20488;-85
2023/08/18 04:09:19;;;;;;;4.77;4.37;;;22.20;80.70;;;;;;4855354;29;20951;-84
2023/08/18 04:11:47;;;;;;;4.27;3.87;;;22.20;80.60;;;;;;4858844;29;20476;-84
2023/08/18 04:14:18;;;;;;;3.97;3.73;;;22.00;81.00;;;;;;4853095;29;20556;-84
2023/08/18 04:16:46;;;;;;;4.80;4.10;;;21.90;80.70;;;;;;4855677;29;20483;-84
2023/08/18 04:19:15;;;;;;;5.30;4.90;;;22.10;79.80;;;;;;4855688;29;20559;-84
2023/08/18 04:21:43;;;;;;;5.63;5.20;;;22.30;78.70;;;;;;4854880;29;20468;-84
2023/08/18 04:24:13;;;;;;;5.47;5.10;;;22.30;78.50;;;;;;4860158;29;20872;-84
2023/08/18 04:26:41;;;;;;;4.90;4.50;;;22.20;78.30;;;;;;4855649;29;20544;-85
2023/08/18 04:29:10;;;;;;;4.80;4.40;;;22.10;78.60;;;;;;4858416;29;20496;-84
2023/08/18 04:31:40;;;;;;;4.93;4.53;;;22.10;78.50;;;;;;4851532;29;21037;-84
2023/08/18 04:34:15;;;;;;;4.20;3.90;;;22.10;78.60;;;;;;4869019;29;20741;-84
2023/08/18 04:36:43;;;;;;;6.20;5.60;;;21.90;79.70;;;;;;4849108;29;20473;-84
2023/08/18 04:39:11;;;;;;;3.60;3.40;;;21.80;81.00;;;;;;4859850;29;20468;-83
2023/08/18 04:41:40;;;;;;;4.27;3.97;;;21.80;81.60;;;;;;4858583;29;20483;-83
2023/08/18 04:44:08;;;;;;;4.30;3.90;;;22.20;80.20;;;;;;4859856;29;20482;-85
2023/08/18 04:46:37;;;;;;;4.83;4.43;;;22.20;80.70;;;;;;4848794;29;20494;-85
2023/08/18 04:49:13;;;;;;;3.90;3.07;;;22.30;80.80;;;;;;4868230;29;20496;-85
2023/08/18 04:51:41;;;;;;;3.87;3.43;;;22.50;81.80;;;;;;4851945;29;20846;-85
2023/08/18 04:54:11;;;;;;;6.07;4.10;;;23.00;81.40;;;;;;4865278;29;20477;-84
2023/08/18 04:56:39;;;;;;;3.17;2.87;;;23.40;80.90;;;;;;4851450;29;20473;-83
2023/08/18 04:59:08;;;;;;;4.13;3.73;;;23.80;79.30;;;;;;4846731;29;20471;-84
2023/08/18 05:01:37;;;;;;;3.23;2.93;;;24.20;78.00;;;;;;4854689;29;20526;-85
2023/08/18 05:04:06;;;;;;;3.67;3.40;;;24.50;76.90;;;;;;4855843;29;20486;-84
2023/08/18 05:06:36;;;;;;;5.13;3.73;;;24.80;75.80;;;;;;4850797;29;20614;-83
2023/08/18 05:09:05;;;;;;;4.40;3.83;;;25.00;74.70;;;;;;4857544;29;20484;-85
2023/08/18 05:11:33;;;;;;;5.97;4.00;;;25.20;74.00;;;;;;4859932;29;20557;-84
2023/08/18 05:14:02;;;;;;;4.13;2.97;;;25.40;74.50;;;;;;4859309;29;20457;-84
2023/08/18 05:16:30;;;;;;;4.17;3.33;;;25.50;73.20;;;;;;4842116;29;20465;-84
2023/08/18 05:18:59;;;;;;;4.73;3.20;;;25.60;72.50;;;;;;4853898;29;20525;-82
2023/08/18 05:21:27;;;;;;;3.70;3.40;;;25.70;71.80;;;;;;4853924;29;20521;-82
2023/08/18 05:23:57;;;;;;;4.13;3.73;;;25.80;71.50;;;;;;4853353;29;20530;-83
2023/08/18 05:26:25;;;;;;;3.30;3.00;;;25.90;71.40;;;;;;4849352;29;20474;-83
2023/08/18 05:28:53;;;;;;;3.50;3.20;;;26.00;71.20;;;;;;4848913;29;20543;-84
2023/08/18 05:31:21;;;;;;;3.57;3.20;;;26.00;71.10;;;;;;4851224;29;20956;-84
2023/08/18 05:33:50;;;;;;;4.03;2.73;;;26.10;70.90;;;;;;4849483;29;20487;-83
2023/08/18 05:36:18;;;;;;;3.33;2.80;;;26.10;70.80;;;;;;4851820;29;20471;-83
2023/08/18 05:38:47;;;;;;;6.93;3.67;;;26.20;70.60;;;;;;4851181;29;20498;-83
2023/08/18 05:41:17;;;;;;;8.40;3.57;;;26.30;70.50;;;;;;4848940;29;21458;-82
2023/08/18 05:43:45;;;;;;;3.73;3.40;;;26.30;70.40;;;;;;4848157;29;20475;-82
2023/08/18 05:46:13;;;;;;;3.83;3.43;;;26.30;70.30;;;;;;4852747;29;20534;-82
2023/08/18 05:48:41;;;;;;;4.53;3.30;;;26.40;70.20;;;;;;4849616;29;21458;-85
2023/08/18 05:51:10;;;;;;;4.30;3.73;;;26.40;70.00;;;;;;4850115;29;20470;-85
2023/08/18 05:53:38;;;;;;;3.80;3.43;;;26.50;70.00;;;;;;4847860;29;20523;-85
2023/08/18 05:56:06;;;;;;;3.30;3.00;;;26.50;69.90;;;;;;4850301;29;20475;-84
2023/08/18 05:58:36;;;;;;;3.03;2.83;;;26.50;69.80;;;;;;4853035;29;20471;-84
2023/08/18 06:01:04;;;;;;;6.17;3.23;;;26.50;69.70;;;;;;4853036;29;20486;-81
2023/08/18 06:03:38;;;;;;;3.90;3.60;;;26.60;69.70;;;;;;4854578;29;21039;-82
2023/08/18 06:09:11;;;;;;;3.23;2.97;;;26.60;69.60;;;;;;4851131;29;20719;-85
2023/08/18 06:11:43;;;;;;;3.77;3.47;;;26.60;69.60;;;;;;4852565;29;20495;-84
2023/08/18 06:14:17;;;;;;;3.60;3.30;;;26.60;69.60;;;;;;4847578;29;20475;-85
2023/08/18 06:16:45;;;;;;;3.63;3.33;;;26.60;69.50;;;;;;4857696;29;20436;-84
2023/08/18 06:19:13;;;;;;;3.67;3.37;;;26.70;69.50;;;;;;4857737;29;20444;-85
2023/08/18 06:21:42;;;;;;;3.67;3.13;;;26.70;69.40;;;;;;4852707;29;20467;-84
2023/08/18 06:24:10;;;;;;;3.63;3.33;;;26.70;69.40;;;;;;4854037;29;20467;-84
2023/08/18 06:26:38;;;;;;;3.43;3.23;;;26.80;69.40;;;;;;4858278;29;20966;-84
2023/08/18 06:29:06;;;;;;;3.93;3.43;;;26.80;69.40;;;;;;4857324;29;20547;-84
2023/08/18 06:31:36;;;;;;;3.77;3.53;;;26.80;69.40;;;;;;4855393;29;20483;-84
2023/08/18 06:34:04;;;;;;;3.73;3.30;;;26.80;69.50;;;;;;4854843;29;20530;-85
2023/08/18 06:36:32;;;;;;;5.60;3.70;;;26.90;69.40;;;;;;4864873;29;20454;-85
2023/08/18 06:39:01;;;;;;;4.77;4.37;;;26.90;69.50;;;;;;4871087;29;20478;-85
2023/08/18 06:41:29;;;;;;;3.57;3.27;;;26.90;69.40;;;;;;4859354;29;20448;-85
2023/08/18 06:43:57;;;;;;;3.50;3.30;;;26.90;69.50;;;;;;4858919;29;20448;-84
2023/08/18 06:46:25;;;;;;;3.40;2.93;;;26.90;69.50;;;;;;4861555;29;20503;-85
2023/08/18 06:48:55;;;;;;;3.30;3.10;;;27.00;69.60;;;;;;4861325;29;20506;-84
2023/08/18 06:51:23;;;;;;;3.97;3.57;;;27.00;69.50;;;;;;4855413;29;20524;-85
2023/08/18 06:53:51;;;;;;;4.27;3.87;;;27.00;69.60;;;;;;4857024;29;20479;-84
2023/08/18 06:56:19;;;;;;;3.60;3.30;;;27.00;69.60;;;;;;4854007;29;20501;-84
2023/08/18 06:58:48;;;;;;;4.00;3.70;;;27.00;69.60;;;;;;4844327;29;20465;-86
2023/08/18 07:01:16;;;;;;;3.27;3.07;;;27.10;69.60;;;;;;4857288;29;20516;-84
2023/08/18 07:03:44;;;;;;;3.60;3.30;;;27.10;69.60;;;;;;4852896;29;20455;-84
2023/08/18 07:06:14;;;;;;;3.63;3.40;;;27.10;69.60;;;;;;4861482;29;20928;-84
2023/08/18 07:08:42;;;;;;;3.90;3.60;;;27.10;69.60;;;;;;4861163;29;20480;-84
2023/08/18 07:11:10;;;;;;;4.30;4.00;;;27.10;69.50;;;;;;4861529;29;20439;-85
2023/08/18 07:13:38;;;;;;;5.23;4.13;;;27.20;69.50;;;;;;4860956;29;20940;-84
2023/08/18 07:16:07;;;;;;;3.50;3.20;;;27.20;69.40;;;;;;4861872;29;20448;-84
2023/08/18 07:18:35;;;;;;;3.90;3.47;;;27.20;69.40;;;;;;4854980;29;20474;-84
2023/08/18 07:21:03;;;;;;;3.70;3.37;;;27.20;69.40;;;;;;4846835;29;20465;-84
2023/08/18 07:23:33;;;;;;;5.33;4.00;;;27.20;69.40;;;;;;4848387;29;20467;-84
2023/08/18 07:26:01;;;;;;;3.63;3.33;;;27.20;69.40;;;;;;4861183;29;20523;-84
2023/08/18 07:28:29;;;;;;;3.03;2.73;;;27.20;69.40;;;;;;4860599;29;20495;-84
2023/08/18 07:31:02;;;;;;;3.30;3.03;;;27.20;69.40;;;;;;4861783;29;20503;-83
2023/08/18 07:33:31;;;;;;;3.73;3.20;;;27.30;69.40;;;;;;4861406;29;20450;-85
2023/08/18 07:35:59;;;;;;;3.50;3.20;;;27.30;69.40;;;;;;4861776;29;20453;-84
2023/08/18 07:38:28;;;;;;;3.57;3.27;;;27.30;69.40;;;;;;4860878;29;20570;-84
2023/08/18 07:40:57;;;;;;;3.40;3.20;;;27.30;69.40;;;;;;4861452;29;20452;-84
2023/08/18 07:43:26;;;;;;;3.77;3.50;;;27.30;69.40;;;;;;4861363;29;20867;-84
2023/08/18 07:45:56;;;;;;;4.23;3.90;;;27.30;69.30;;;;;;4861836;29;20471;-84
2023/08/18 07:48:24;;;;;;;3.60;3.30;;;27.30;69.30;;;;;;4853028;29;20492;-84
2023/08/18 07:50:52;;;;;;;3.90;3.43;;;27.40;69.30;;;;;;4846399;29;20484;-84
2023/08/18 07:53:20;;;;;;;3.20;3.00;;;27.40;69.30;;;;;;4857923;29;20467;-85
2023/08/18 07:55:49;;;;;;;6.20;3.30;;;27.40;69.30;;;;;;4847157;29;20486;-85
2023/08/18 07:58:18;;;;;;;2.93;2.73;;;27.40;69.30;;;;;;4850505;29;20520;-84
2023/08/18 08:00:47;;;;;;;3.50;3.27;;;27.40;69.30;;;;;;4861375;29;20445;-83
2023/08/18 08:03:16;;;;;;;3.47;3.27;;;27.40;69.30;;;;;;4860051;29;20871;-84
2023/08/18 08:05:44;;;;;;;2.97;2.77;;;27.40;69.30;;;;;;4861145;29;20456;-84
2023/08/18 08:08:12;;;;;;;3.60;3.33;;;27.40;69.30;;;;;;4860117;29;20544;-84
2023/08/18 08:10:40;;;;;;;4.23;3.80;;;27.50;69.30;;;;;;4861443;29;20479;-85
2023/08/18 08:13:09;;;;;;;3.80;3.40;;;27.50;69.30;;;;;;4860326;29;20455;-84
2023/08/18 08:15:38;;;;;;;3.20;3.00;;;27.50;69.30;;;;;;4858453;29;20464;-84
2023/08/18 08:18:07;;;;;;;3.27;2.97;;;27.50;69.30;;;;;;4848514;29;20466;-84
2023/08/18 08:20:39;;;;;;;3.30;3.10;;;27.50;69.30;;;;;;4845705;29;20476;-84
2023/08/18 08:23:08;;;;;;;3.47;3.27;;;27.50;69.30;;;;;;4853169;29;20558;-84
2023/08/18 08:25:36;;;;;;;3.10;2.90;;;27.50;69.30;;;;;;4860768;29;20924;-84
2023/08/18 08:28:05;;;;;;;4.10;3.27;;;27.50;69.30;;;;;;4860293;29;20541;-84
2023/08/18 08:30:33;;;;;;;3.67;3.27;;;27.50;69.30;;;;;;4861158;29;20967;-85
2023/08/18 08:33:06;;;;;;;3.37;3.17;;;27.60;69.30;;;;;;4860178;29;20445;-84
2023/08/18 08:35:34;;;;;;;3.07;2.87;;;27.60;69.40;;;;;;4860416;29;20514;-85
2023/08/18 08:38:03;;;;;;;3.47;3.27;;;27.60;69.40;;;;;;4858910;29;20459;-85
2023/08/18 08:40:31;;;;;;;4.27;3.83;;;27.60;69.50;;;;;;4859719;29;21325;-84
2023/08/18 08:42:59;;;;;;;3.50;3.10;;;27.60;69.50;;;;;;4860661;29;20453;-84
2023/08/18 08:45:31;;;;;;;3.50;3.27;;;27.60;69.50;;;;;;4853564;29;20500;-84
2023/08/18 08:48:03;;;;;;;3.90;3.20;;;27.60;69.50;;;;;;4845033;29;21011;-84
2023/08/18 08:50:37;;;;;;;3.67;3.37;;;27.60;69.50;;;;;;4841819;29;20486;-84
2023/08/18 08:53:07;;;;;;;3.03;2.83;;;27.60;69.60;;;;;;4858949;29;20481;-84
2023/08/18 08:55:37;;;;;;;3.27;2.80;;;27.60;69.50;;;;;;4860201;29;20440;-84
2023/08/18 08:58:06;;;;;;;4.00;3.70;;;27.70;69.60;;;;;;4860184;29;20435;-84
2023/08/18 09:00:40;;;;;;;3.83;3.60;;;27.60;69.60;;;;;;4855120;29;20516;-84
2023/08/18 09:03:08;;;;;;;3.73;3.53;;;27.70;69.60;;;;;;4851347;29;20468;-84
2023/08/18 09:05:38;;;;;;;3.40;3.20;;;27.70;69.60;;;;;;4860453;29;20815;-84
2023/08/18 09:08:07;;;;;;;3.10;2.90;;;27.70;69.60;;;;;;4846745;29;20960;-86
2023/08/18 09:10:38;;;;;;;3.00;2.80;;;27.70;69.60;;;;;;4843521;29;20540;-84
2023/08/18 09:13:08;;;;;;;3.43;3.13;;;27.70;69.60;;;;;;4855334;29;20465;-84
2023/08/18 09:15:36;;;;;;;3.17;2.97;;;27.70;69.60;;;;;;4845072;29;20523;-84
2023/08/18 09:18:05;;;;;;;3.00;2.80;;;27.70;69.60;;;;;;4841448;29;20428;-84
2023/08/18 09:20:34;;;;;;;3.20;3.00;;;27.70;69.70;;;;;;4843357;29;20451;-84
2023/08/18 09:23:03;;;;;;;4.17;3.07;;;27.70;69.60;;;;;;4856808;29;20454;-84
2023/08/18 09:25:34;;;;;;;3.40;3.10;;;27.70;69.70;;;;;;4859874;29;20504;-86
2023/08/18 09:28:03;;;;;;;2.90;2.70;;;27.70;69.70;;;;;;4858420;29;21086;-85
2023/08/18 09:30:35;;;;;;;3.20;3.00;;;27.70;69.70;;;;;;4859859;29;20477;-84
2023/08/18 09:33:04;;;;;;;3.20;3.00;;;27.70;69.70;;;;;;4859788;29;20515;-85
2023/08/18 09:35:34;;;;;;;3.17;2.90;;;27.80;69.70;;;;;;4859637;29;20461;-85
2023/08/18 09:38:04;;;;;;;3.40;3.10;;;27.80;69.70;;;;;;4859110;29;20503;-85
2023/08/18 09:40:32;;;;;;;3.10;2.90;;;27.80;69.80;;;;;;4859532;29;20858;-82
2023/08/18 09:43:01;;;;;;;3.50;3.30;;;27.80;69.70;;;;;;4852961;29;20919;-82
2023/08/18 09:45:40;;;;;;;3.33;3.13;;;27.80;69.70;;;;;;4844983;29;20479;-82
2023/08/18 09:48:13;;;;;;;3.70;3.40;;;27.80;69.70;;;;;;4854441;29;21144;-82
2023/08/18 09:50:43;;;;;;;3.13;2.90;;;27.80;69.70;;;;;;4855026;29;20483;-82
2023/08/18 09:53:15;;;;;;;2.40;2.27;;;27.80;69.70;;;;;;4856996;29;20840;-84
2023/08/18 09:55:45;;;;;;;3.27;2.97;;;27.80;69.70;;;;;;4856072;29;20816;-84
2023/08/18 09:58:20;;;;;;;3.30;3.10;;;27.80;69.80;;;;;;4854341;29;20470;-84
2023/08/18 10:00:56;;;;;;;3.13;2.93;;;27.80;69.70;;;;;;4847325;29;20470;-84
2023/08/18 10:03:27;;;;;;;3.27;3.07;;;27.80;69.70;;;;;;4846291;29;20502;-84
2023/08/18 10:05:56;;;;;;;3.00;2.80;;;27.80;69.70;;;;;;4858364;29;20835;-84
2023/08/18 10:08:27;;;;;;;3.40;3.20;;;27.80;69.80;;;;;;4856976;29;20860;-84
2023/08/18 10:10:56;;;;;;;2.93;2.73;;;27.80;69.80;;;;;;4859670;29;20538;-84
2023/08/18 10:13:25;;;;;;;3.20;3.00;;;27.80;69.80;;;;;;4853582;29;20476;-84
2023/08/18 10:15:54;;;;;;;3.70;3.40;;;27.80;69.80;;;;;;4857923;29;20542;-84
2023/08/18 10:18:23;;;;;;;3.17;2.87;;;27.90;69.90;;;;;;4859068;29;20498;-84
2023/08/18 10:20:52;;;;;;;3.30;3.10;;;27.90;69.90;;;;;;4858620;29;20457;-84
2023/08/18 10:23:21;;;;;;;3.07;2.87;;;27.90;69.90;;;;;;4858255;29;21058;-84
2023/08/18 10:25:52;;;;;;;3.23;3.03;;;27.90;69.80;;;;;;4859405;29;20438;-84
2023/08/18 10:28:21;;;;;;;3.33;3.10;;;27.90;69.80;;;;;;4858692;29;20524;-84
2023/08/18 10:30:57;;;;;;;3.40;3.10;;;27.90;69.70;;;;;;4858749;29;20509;-85
2023/08/18 10:33:31;;;;;;;2.70;2.37;;;27.90;69.60;;;;;;4858871;29;20451;-84
2023/08/18 10:36:02;;;;;;;2.83;2.63;;;27.90;69.50;;;;;;4854483;29;20466;-84
2023/08/18 10:38:31;;;;;;;2.77;2.60;;;27.90;69.50;;;;;;4840080;29;20443;-84
2023/08/18 10:41:00;;;;;;;3.20;2.77;;;27.90;69.50;;;;;;4842414;29;20470;-85
2023/08/18 10:43:30;;;;;;;3.10;2.90;;;27.90;69.50;;;;;;4848376;29;20464;-84
2023/08/18 10:45:59;;;;;;;3.23;3.03;;;28.00;69.50;;;;;;4854783;29;21008;-84
2023/08/18 10:48:32;;;;;;;2.90;2.77;;;28.00;69.50;;;;;;4857600;29;20464;-84
2023/08/18 10:51:01;;;;;;;2.93;2.73;;;28.00;69.50;;;;;;4858887;29;20510;-84
2023/08/18 10:53:33;;;;;;;3.20;3.00;;;28.00;69.50;;;;;;4857725;29;20443;-84
2023/08/18 10:56:04;;;;;;;3.50;3.20;;;28.00;69.50;;;;;;4859493;29;20487;-84
2023/08/18 10:58:34;;;;;;;2.70;2.50;;;28.00;69.60;;;;;;4858502;29;20473;-85
2023/08/18 11:01:03;;;;;;;3.83;3.60;;;28.00;69.60;;;;;;4851273;29;20508;-85
2023/08/18 11:03:32;;;;;;;3.10;2.90;;;27.90;69.60;;;;;;4848480;29;20468;-84
2023/08/18 11:06:00;;;;;;;2.60;2.50;;;27.90;69.70;;;;;;4852824;29;20474;-85
2023/08/18 11:08:28;;;;;;;3.30;3.10;;;27.90;69.70;;;;;;4857686;29;20512;-84
2023/08/18 11:10:56;;;;;;;2.70;2.60;;;27.90;69.80;;;;;;4851990;29;20494;-84
2023/08/18 11:13:28;;;;;;;2.70;2.50;;;27.90;70.00;;;;;;4858127;29;20549;-84
2023/08/18 11:15:58;;;;;;;2.90;2.70;;;27.90;70.00;;;;;;4873276;29;20482;-84
2023/08/18 11:18:27;;;;;;;2.57;2.47;;;27.80;70.00;;;;;;4858247;29;20467;-84
2023/08/18 11:20:57;;;;;;;3.27;3.07;;;27.80;70.10;;;;;;4858432;29;20442;-84
2023/08/18 11:23:26;;;;;;;4.80;2.70;;;27.90;70.00;;;;;;4857741;29;20967;-84
2023/08/18 11:25:55;;;;;;;2.90;2.70;;;27.90;69.80;;;;;;4860529;29;20562;-84
2023/08/18 11:28:24;;;;;;;2.53;2.43;;;28.00;69.90;;;;;;4861606;29;20486;-84
2023/08/18 11:30:56;;;;;;;3.07;2.87;;;28.00;69.80;;;;;;4861827;29;20487;-84
2023/08/18 11:33:25;;;;;;;3.10;2.90;;;28.00;69.70;;;;;;4861568;29;20454;-84
2023/08/18 11:35:55;;;;;;;2.93;2.73;;;28.10;69.50;;;;;;4861627;29;20581;-84
2023/08/18 11:38:23;;;;;;;2.53;2.37;;;28.20;69.20;;;;;;4856145;29;20471;-84
2023/08/18 11:40:52;;;;;;;2.80;2.60;;;28.40;69.00;;;;;;4846348;29;20468;-84
2023/08/18 11:43:21;;;;;;;2.73;2.63;;;28.50;68.70;;;;;;4848727;29;20475;-84
2023/08/18 11:45:51;;;;;;;2.73;2.60;;;28.70;68.30;;;;;;4846018;29;21004;-85
2023/08/18 11:48:22;;;;;;;2.80;2.60;;;28.90;67.60;;;;;;4842840;29;20440;-84
2023/08/18 11:50:56;;;;;;;2.80;2.60;;;29.20;67.10;;;;;;4864584;29;20460;-84
2023/08/18 11:53:25;;;;;;;3.03;2.83;;;29.40;66.60;;;;;;4860512;29;20459;-84
2023/08/18 11:55:54;;;;;;;3.00;2.80;;;29.50;66.20;;;;;;4861397;29;20506;-84
2023/08/18 11:58:24;;;;;;;2.83;2.53;;;29.70;65.80;;;;;;4861284;29;21006;-86
2023/08/18 12:00:53;;;;;;;2.60;2.50;;;29.80;65.70;;;;;;4860639;29;20891;-84
2023/08/18 12:03:24;;;;;;;3.13;2.60;;;29.80;65.40;;;;;;4860982;29;20474;-85
2023/08/18 12:05:55;;;;;;;2.53;2.33;;;29.90;65.30;;;;;;4860263;29;20447;-85
2023/08/18 12:08:23;;;;;;;2.53;2.33;;;29.90;65.20;;;;;;4848350;29;20509;-84
2023/08/18 12:10:53;;;;;;;2.73;2.60;;;30.00;65.10;;;;;;4844469;29;20475;-84
2023/08/18 12:13:22;;;;;;;2.73;2.53;;;30.00;65.00;;;;;;4858855;29;20467;-84
2023/08/18 12:15:51;;;;;;;2.90;2.70;;;30.00;64.90;;;;;;4861236;29;20521;-85
2023/08/18 12:18:19;;;;;;;3.20;3.00;;;30.10;64.70;;;;;;4860924;29;20447;-84
2023/08/18 12:20:49;;;;;;;2.63;2.43;;;30.10;64.60;;;;;;4861318;29;20444;-84
2023/08/18 12:23:17;;;;;;;2.90;2.70;;;30.20;64.50;;;;;;4859914;29;20484;-84
2023/08/18 12:25:45;;;;;;;2.03;1.93;;;30.20;64.40;;;;;;4861042;29;20496;-84
2023/08/18 12:28:13;;;;;;;2.27;2.17;;;30.30;64.30;;;;;;4860550;29;20556;-83
2023/08/18 12:30:41;;;;;;;2.57;2.37;;;30.30;64.30;;;;;;4860835;29;20452;-84
2023/08/18 12:33:10;;;;;;;2.43;2.33;;;30.30;64.10;;;;;;4860933;29;20468;-84
2023/08/18 12:35:38;;;;;;;2.80;2.60;;;30.30;64.20;;;;;;4860675;29;20455;-84
2023/08/18 12:38:08;;;;;;;2.23;2.13;;;30.30;64.20;;;;;;4846007;29;20473;-84
2023/08/18 12:40:36;;;;;;;3.00;2.80;;;30.20;64.20;;;;;;4842931;29;20434;-84
2023/08/18 12:43:05;;;;;;;2.60;2.40;;;30.20;64.40;;;;;;4847633;29;20460;-84
2023/08/18 12:45:33;;;;;;;2.20;2.10;;;30.10;64.40;;;;;;4860332;29;20480;-84
2023/08/18 12:48:02;;;;;;;2.63;2.43;;;30.10;64.50;;;;;;4860772;29;21033;-84
2023/08/18 12:50:30;;;;;;;2.60;2.40;;;30.10;64.60;;;;;;4860911;29;20456;-85
2023/08/18 12:52:59;;;;;;;2.37;2.20;;;30.00;64.70;;;;;;4859693;29;20543;-84
2023/08/18 12:55:28;;;;;;;2.20;2.10;;;29.90;64.80;;;;;;4860844;29;20456;-84
2023/08/18 12:57:56;;;;;;;2.50;2.30;;;29.90;64.90;;;;;;4859916;29;20984;-84
2023/08/18 13:00:25;;;;;;;3.27;3.07;;;29.80;65.00;;;;;;4860007;29;20443;-84